Aviation Digital Data Service (ADDS)

Output produced by METARs form (2038 UTC 27 September 2016)
found at http://aviationweather.gov/adds/metars/
 
KLFT 271953Z 35006KT 10SM CLR 31/21 A2993 RMK AO2 SLP135 T03110206 $